sensor_id;sensor_type;location;lat;lon;timestamp;P1;durP1;ratioP1;P2;durP2;ratioP2
18217;SDS011;9234;49.344;11.120;2023-04-24T00:00:37;1.55;;;1.20;;
18217;SDS011;9234;49.344;11.120;2023-04-24T00:03:07;3.42;;;1.00;;
18217;SDS011;9234;49.344;11.120;2023-04-24T00:05:35;2.30;;;1.30;;
18217;SDS011;9234;49.344;11.120;2023-04-24T00:08:04;3.58;;;0.93;;
18217;SDS011;9234;49.344;11.120;2023-04-24T00:10:32;2.38;;;1.15;;
18217;SDS011;9234;49.344;11.120;2023-04-24T00:13:02;1.92;;;1.33;;
18217;SDS011;9234;49.344;11.120;2023-04-24T00:15:30;1.95;;;1.38;;
18217;SDS011;9234;49.344;11.120;2023-04-24T00:17:58;1.95;;;1.23;;
18217;SDS011;9234;49.344;11.120;2023-04-24T00:20:27;2.33;;;1.33;;
18217;SDS011;9234;49.344;11.120;2023-04-24T00:22:56;1.60;;;1.23;;
18217;SDS011;9234;49.344;11.120;2023-04-24T00:25:24;1.67;;;1.38;;
18217;SDS011;9234;49.344;11.120;2023-04-24T00:27:52;2.88;;;1.73;;
18217;SDS011;9234;49.344;11.120;2023-04-24T00:30:22;2.92;;;1.80;;
18217;SDS011;9234;49.344;11.120;2023-04-24T00:32:50;1.60;;;1.50;;
18217;SDS011;9234;49.344;11.120;2023-04-24T00:35:18;1.45;;;1.35;;
18217;SDS011;9234;49.344;11.120;2023-04-24T00:37:47;1.77;;;1.10;;
18217;SDS011;9234;49.344;11.120;2023-04-24T00:40:15;1.80;;;1.43;;
18217;SDS011;9234;49.344;11.120;2023-04-24T00:42:44;2.03;;;1.30;;
18217;SDS011;9234;49.344;11.120;2023-04-24T00:45:13;3.67;;;1.50;;
18217;SDS011;9234;49.344;11.120;2023-04-24T00:47:42;4.00;;;1.13;;
18217;SDS011;9234;49.344;11.120;2023-04-24T00:50:14;1.98;;;1.20;;
18217;SDS011;9234;49.344;11.120;2023-04-24T00:52:43;1.50;;;1.23;;
18217;SDS011;9234;49.344;11.120;2023-04-24T00:55:11;3.22;;;1.55;;
18217;SDS011;9234;49.344;11.120;2023-04-24T00:57:40;3.25;;;1.52;;
18217;SDS011;9234;49.344;11.120;2023-04-24T01:00:09;2.53;;;1.45;;
18217;SDS011;9234;49.344;11.120;2023-04-24T01:02:38;2.83;;;1.70;;
18217;SDS011;9234;49.344;11.120;2023-04-24T01:05:12;1.55;;;1.40;;
18217;SDS011;9234;49.344;11.120;2023-04-24T01:07:43;4.30;;;1.40;;
18217;SDS011;9234;49.344;11.120;2023-04-24T01:10:15;2.00;;;1.70;;
18217;SDS011;9234;49.344;11.120;2023-04-24T01:12:45;2.30;;;1.65;;
18217;SDS011;9234;49.344;11.120;2023-04-24T01:15:13;2.72;;;1.48;;
18217;SDS011;9234;49.344;11.120;2023-04-24T01:17:41;1.48;;;1.27;;
18217;SDS011;9234;49.344;11.120;2023-04-24T01:20:11;3.13;;;1.40;;
18217;SDS011;9234;49.344;11.120;2023-04-24T01:22:43;2.65;;;1.80;;
18217;SDS011;9234;49.344;11.120;2023-04-24T01:25:11;2.90;;;2.20;;
18217;SDS011;9234;49.344;11.120;2023-04-24T01:27:39;4.68;;;2.40;;
18217;SDS011;9234;49.344;11.120;2023-04-24T01:30:08;4.63;;;2.92;;
18217;SDS011;9234;49.344;11.120;2023-04-24T01:32:38;6.55;;;3.50;;
18217;SDS011;9234;49.344;11.120;2023-04-24T01:35:08;6.15;;;3.70;;
18217;SDS011;9234;49.344;11.120;2023-04-24T01:37:36;6.95;;;3.83;;
18217;SDS011;9234;49.344;11.120;2023-04-24T01:40:06;4.80;;;3.17;;
18217;SDS011;9234;49.344;11.120;2023-04-24T01:42:36;7.68;;;3.30;;
18217;SDS011;9234;49.344;11.120;2023-04-24T01:45:04;6.83;;;3.50;;
18217;SDS011;9234;49.344;11.120;2023-04-24T01:47:36;4.47;;;3.17;;
18217;SDS011;9234;49.344;11.120;2023-04-24T01:50:06;5.75;;;2.78;;
18217;SDS011;9234;49.344;11.120;2023-04-24T01:52:38;2.87;;;1.77;;
18217;SDS011;9234;49.344;11.120;2023-04-24T01:55:10;4.88;;;1.98;;
18217;SDS011;9234;49.344;11.120;2023-04-24T01:57:38;2.08;;;1.50;;
18217;SDS011;9234;49.344;11.120;2023-04-24T02:00:08;2.28;;;1.48;;
18217;SDS011;9234;49.344;11.120;2023-04-24T02:02:40;3.17;;;1.50;;
18217;SDS011;9234;49.344;11.120;2023-04-24T02:05:13;1.70;;;1.20;;
18217;SDS011;9234;49.344;11.120;2023-04-24T02:07:41;1.35;;;1.25;;
18217;SDS011;9234;49.344;11.120;2023-04-24T02:10:11;1.73;;;1.00;;
18217;SDS011;9234;49.344;11.120;2023-04-24T02:12:42;2.08;;;1.20;;
18217;SDS011;9234;49.344;11.120;2023-04-24T02:15:10;1.15;;;1.05;;
18217;SDS011;9234;49.344;11.120;2023-04-24T02:17:39;1.63;;;1.17;;
18217;SDS011;9234;49.344;11.120;2023-04-24T02:20:07;4.43;;;1.65;;
18217;SDS011;9234;49.344;11.120;2023-04-24T02:22:37;1.50;;;1.40;;
18217;SDS011;9234;49.344;11.120;2023-04-24T02:25:06;1.50;;;1.10;;
18217;SDS011;9234;49.344;11.120;2023-04-24T02:27:36;5.20;;;1.40;;
18217;SDS011;9234;49.344;11.120;2023-04-24T02:30:05;3.70;;;1.30;;
18217;SDS011;9234;49.344;11.120;2023-04-24T02:32:34;2.33;;;1.40;;
18217;SDS011;9234;49.344;11.120;2023-04-24T02:35:03;4.17;;;1.70;;
18217;SDS011;9234;49.344;11.120;2023-04-24T02:37:32;2.67;;;1.40;;
18217;SDS011;9234;49.344;11.120;2023-04-24T02:40:01;1.83;;;1.20;;
18217;SDS011;9234;49.344;11.120;2023-04-24T02:42:30;3.03;;;1.20;;
18217;SDS011;9234;49.344;11.120;2023-04-24T02:44:59;1.85;;;1.15;;
18217;SDS011;9234;49.344;11.120;2023-04-24T02:47:28;1.63;;;1.45;;
18217;SDS011;9234;49.344;11.120;2023-04-24T02:49:56;2.57;;;1.30;;
18217;SDS011;9234;49.344;11.120;2023-04-24T02:52:24;3.23;;;1.73;;
18217;SDS011;9234;49.344;11.120;2023-04-24T02:54:52;2.65;;;1.05;;
18217;SDS011;9234;49.344;11.120;2023-04-24T02:57:21;1.83;;;1.48;;
18217;SDS011;9234;49.344;11.120;2023-04-24T02:59:49;1.60;;;1.40;;
18217;SDS011;9234;49.344;11.120;2023-04-24T03:02:19;2.07;;;1.43;;
18217;SDS011;9234;49.344;11.120;2023-04-24T03:04:48;1.70;;;1.60;;
18217;SDS011;9234;49.344;11.120;2023-04-24T03:07:16;1.63;;;1.27;;
18217;SDS011;9234;49.344;11.120;2023-04-24T03:09:47;3.97;;;1.20;;
18217;SDS011;9234;49.344;11.120;2023-04-24T03:12:15;2.97;;;1.60;;
18217;SDS011;9234;49.344;11.120;2023-04-24T03:14:44;1.30;;;1.15;;
18217;SDS011;9234;49.344;11.120;2023-04-24T03:17:12;2.60;;;1.67;;
18217;SDS011;9234;49.344;11.120;2023-04-24T03:19:41;4.83;;;1.53;;
18217;SDS011;9234;49.344;11.120;2023-04-24T03:22:11;1.40;;;1.30;;
18217;SDS011;9234;49.344;11.120;2023-04-24T03:24:42;1.55;;;1.30;;
18217;SDS011;9234;49.344;11.120;2023-04-24T03:27:13;1.80;;;1.65;;
18217;SDS011;9234;49.344;11.120;2023-04-24T03:29:49;5.15;;;1.67;;
18217;SDS011;9234;49.344;11.120;2023-04-24T03:32:25;2.90;;;2.22;;
18217;SDS011;9234;49.344;11.120;2023-04-24T03:34:55;4.73;;;1.77;;
18217;SDS011;9234;49.344;11.120;2023-04-24T03:37:24;3.42;;;1.92;;
18217;SDS011;9234;49.344;11.120;2023-04-24T03:40:07;3.13;;;1.52;;
18217;SDS011;9234;49.344;11.120;2023-04-24T03:42:37;2.08;;;1.63;;
18217;SDS011;9234;49.344;11.120;2023-04-24T03:45:06;3.73;;;1.63;;
18217;SDS011;9234;49.344;11.120;2023-04-24T03:47:38;2.97;;;1.50;;
18217;SDS011;9234;49.344;11.120;2023-04-24T03:50:08;4.25;;;1.83;;
18217;SDS011;9234;49.344;11.120;2023-04-24T03:52:39;3.67;;;1.63;;
18217;SDS011;9234;49.344;11.120;2023-04-24T03:55:08;3.72;;;1.60;;
18217;SDS011;9234;49.344;11.120;2023-04-24T03:57:43;2.53;;;1.88;;
18217;SDS011;9234;49.344;11.120;2023-04-24T04:00:19;3.03;;;1.70;;
18217;SDS011;9234;49.344;11.120;2023-04-24T04:02:56;4.67;;;1.60;;
18217;SDS011;9234;49.344;11.120;2023-04-24T04:05:26;3.25;;;2.05;;
18217;SDS011;9234;49.344;11.120;2023-04-24T04:07:55;3.38;;;2.83;;
18217;SDS011;9234;49.344;11.120;2023-04-24T04:10:24;2.40;;;2.20;;
18217;SDS011;9234;49.344;11.120;2023-04-24T04:12:52;4.40;;;2.80;;
18217;SDS011;9234;49.344;11.120;2023-04-24T04:15:20;4.00;;;2.35;;
18217;SDS011;9234;49.344;11.120;2023-04-24T04:17:49;3.03;;;2.60;;
18217;SDS011;9234;49.344;11.120;2023-04-24T04:20:18;3.95;;;2.70;;
18217;SDS011;9234;49.344;11.120;2023-04-24T04:22:47;3.65;;;2.67;;
18217;SDS011;9234;49.344;11.120;2023-04-24T04:25:23;3.47;;;2.70;;
18217;SDS011;9234;49.344;11.120;2023-04-24T04:27:51;2.33;;;2.13;;
18217;SDS011;9234;49.344;11.120;2023-04-24T04:30:20;3.92;;;2.30;;
18217;SDS011;9234;49.344;11.120;2023-04-24T04:32:55;4.27;;;2.43;;
18217;SDS011;9234;49.344;11.120;2023-04-24T04:35:24;3.80;;;2.37;;
18217;SDS011;9234;49.344;11.120;2023-04-24T04:37:54;3.77;;;2.10;;
18217;SDS011;9234;49.344;11.120;2023-04-24T04:40:47;1.77;;;1.67;;
18217;SDS011;9234;49.344;11.120;2023-04-24T04:43:17;5.37;;;2.50;;
18217;SDS011;9234;49.344;11.120;2023-04-24T04:45:50;5.10;;;2.20;;
18217;SDS011;9234;49.344;11.120;2023-04-24T04:48:33;6.27;;;2.40;;
18217;SDS011;9234;49.344;11.120;2023-04-24T04:51:04;4.75;;;2.63;;
18217;SDS011;9234;49.344;11.120;2023-04-24T04:53:34;3.38;;;2.28;;
18217;SDS011;9234;49.344;11.120;2023-04-24T04:56:02;3.38;;;2.17;;
18217;SDS011;9234;49.344;11.120;2023-04-24T04:58:35;4.97;;;2.25;;
18217;SDS011;9234;49.344;11.120;2023-04-24T05:01:06;2.55;;;2.35;;
18217;SDS011;9234;49.344;11.120;2023-04-24T05:03:40;2.83;;;2.38;;
18217;SDS011;9234;49.344;11.120;2023-04-24T05:06:11;2.20;;;2.00;;
18217;SDS011;9234;49.344;11.120;2023-04-24T05:08:41;2.75;;;2.00;;
18217;SDS011;9234;49.344;11.120;2023-04-24T05:11:18;6.80;;;2.22;;
18217;SDS011;9234;49.344;11.120;2023-04-24T05:13:47;3.23;;;2.17;;
18217;SDS011;9234;49.344;11.120;2023-04-24T05:16:23;4.20;;;2.40;;
18217;SDS011;9234;49.344;11.120;2023-04-24T05:18:53;4.75;;;3.00;;
18217;SDS011;9234;49.344;11.120;2023-04-24T05:21:27;6.95;;;3.35;;
18217;SDS011;9234;49.344;11.120;2023-04-24T05:23:58;3.47;;;2.55;;
18217;SDS011;9234;49.344;11.120;2023-04-24T05:26:52;4.30;;;3.00;;
18217;SDS011;9234;49.344;11.120;2023-04-24T05:29:26;4.18;;;3.33;;
18217;SDS011;9234;49.344;11.120;2023-04-24T05:31:56;5.85;;;3.15;;
18217;SDS011;9234;49.344;11.120;2023-04-24T05:34:26;5.18;;;2.83;;
18217;SDS011;9234;49.344;11.120;2023-04-24T05:36:56;3.25;;;2.60;;
18217;SDS011;9234;49.344;11.120;2023-04-24T05:39:26;3.58;;;2.53;;
18217;SDS011;9234;49.344;11.120;2023-04-24T05:41:54;5.55;;;2.88;;
18217;SDS011;9234;49.344;11.120;2023-04-24T05:44:24;3.80;;;2.20;;
18217;SDS011;9234;49.344;11.120;2023-04-24T05:46:52;2.80;;;2.58;;
18217;SDS011;9234;49.344;11.120;2023-04-24T05:49:21;4.43;;;2.30;;
18217;SDS011;9234;49.344;11.120;2023-04-24T05:51:50;5.55;;;2.42;;
18217;SDS011;9234;49.344;11.120;2023-04-24T05:54:18;6.68;;;2.55;;
18217;SDS011;9234;49.344;11.120;2023-04-24T05:56:48;2.55;;;2.35;;
18217;SDS011;9234;49.344;11.120;2023-04-24T05:59:26;5.22;;;2.47;;
18217;SDS011;9234;49.344;11.120;2023-04-24T06:01:56;4.10;;;2.65;;
18217;SDS011;9234;49.344;11.120;2023-04-24T06:04:24;6.07;;;2.50;;
18217;SDS011;9234;49.344;11.120;2023-04-24T06:06:53;5.15;;;2.72;;
18217;SDS011;9234;49.344;11.120;2023-04-24T06:09:23;3.08;;;2.00;;
18217;SDS011;9234;49.344;11.120;2023-04-24T06:11:52;3.05;;;2.67;;
18217;SDS011;9234;49.344;11.120;2023-04-24T06:14:24;5.38;;;2.80;;
18217;SDS011;9234;49.344;11.120;2023-04-24T06:17:15;5.88;;;2.25;;
18217;SDS011;9234;49.344;11.120;2023-04-24T06:19:44;3.50;;;2.05;;
18217;SDS011;9234;49.344;11.120;2023-04-24T06:22:13;2.55;;;2.28;;
18217;SDS011;9234;49.344;11.120;2023-04-24T06:24:41;2.97;;;2.50;;
18217;SDS011;9234;49.344;11.120;2023-04-24T06:27:11;3.15;;;2.35;;
18217;SDS011;9234;49.344;11.120;2023-04-24T06:29:41;2.17;;;1.83;;
18217;SDS011;9234;49.344;11.120;2023-04-24T06:32:10;2.42;;;1.92;;
18217;SDS011;9234;49.344;11.120;2023-04-24T06:34:38;3.05;;;1.83;;
18217;SDS011;9234;49.344;11.120;2023-04-24T06:37:06;1.65;;;1.55;;
18217;SDS011;9234;49.344;11.120;2023-04-24T06:39:34;3.10;;;1.75;;
18217;SDS011;9234;49.344;11.120;2023-04-24T06:42:03;3.47;;;1.55;;
18217;SDS011;9234;49.344;11.120;2023-04-24T06:44:34;1.48;;;1.30;;
18217;SDS011;9234;49.344;11.120;2023-04-24T06:47:07;1.75;;;1.65;;
18217;SDS011;9234;49.344;11.120;2023-04-24T06:49:36;2.08;;;1.20;;
18217;SDS011;9234;49.344;11.120;2023-04-24T06:52:05;3.22;;;1.52;;
18217;SDS011;9234;49.344;11.120;2023-04-24T06:54:33;1.98;;;1.17;;
18217;SDS011;9234;49.344;11.120;2023-04-24T06:57:01;1.35;;;1.25;;
18217;SDS011;9234;49.344;11.120;2023-04-24T06:59:30;1.90;;;0.80;;
18217;SDS011;9234;49.344;11.120;2023-04-24T07:01:59;1.65;;;0.70;;
18217;SDS011;9234;49.344;11.120;2023-04-24T07:04:27;2.20;;;0.80;;
18217;SDS011;9234;49.344;11.120;2023-04-24T07:06:56;1.10;;;0.50;;
18217;SDS011;9234;49.344;11.120;2023-04-24T07:09:25;0.52;;;0.45;;
18217;SDS011;9234;49.344;11.120;2023-04-24T07:11:54;0.60;;;0.52;;
18217;SDS011;9234;49.344;11.120;2023-04-24T07:14:23;1.52;;;0.50;;
18217;SDS011;9234;49.344;11.120;2023-04-24T07:16:51;4.70;;;0.70;;
18217;SDS011;9234;49.344;11.120;2023-04-24T07:19:21;2.10;;;0.50;;
18217;SDS011;9234;49.344;11.120;2023-04-24T07:21:49;1.50;;;0.80;;
18217;SDS011;9234;49.344;11.120;2023-04-24T07:24:17;1.00;;;0.60;;
18217;SDS011;9234;49.344;11.120;2023-04-24T07:26:48;1.73;;;0.90;;
18217;SDS011;9234;49.344;11.120;2023-04-24T07:29:18;0.90;;;0.70;;
18217;SDS011;9234;49.344;11.120;2023-04-24T07:31:47;1.38;;;1.00;;
18217;SDS011;9234;49.344;11.120;2023-04-24T07:34:15;0.93;;;0.68;;
18217;SDS011;9234;49.344;11.120;2023-04-24T07:36:45;2.67;;;0.95;;
18217;SDS011;9234;49.344;11.120;2023-04-24T07:39:13;1.23;;;0.80;;
18217;SDS011;9234;49.344;11.120;2023-04-24T07:41:41;2.97;;;1.00;;
18217;SDS011;9234;49.344;11.120;2023-04-24T07:44:10;1.20;;;0.70;;
18217;SDS011;9234;49.344;11.120;2023-04-24T07:46:38;1.40;;;1.15;;
18217;SDS011;9234;49.344;11.120;2023-04-24T07:49:07;1.60;;;1.42;;
18217;SDS011;9234;49.344;11.120;2023-04-24T07:51:39;1.20;;;1.08;;
18217;SDS011;9234;49.344;11.120;2023-04-24T07:54:09;1.42;;;1.08;;
18217;SDS011;9234;49.344;11.120;2023-04-24T07:56:38;1.40;;;1.23;;
18217;SDS011;9234;49.344;11.120;2023-04-24T07:59:06;1.38;;;1.10;;
18217;SDS011;9234;49.344;11.120;2023-04-24T08:01:36;1.77;;;1.15;;
18217;SDS011;9234;49.344;11.120;2023-04-24T08:04:04;1.55;;;1.08;;
18217;SDS011;9234;49.344;11.120;2023-04-24T08:06:33;1.52;;;1.38;;
18217;SDS011;9234;49.344;11.120;2023-04-24T08:09:02;1.80;;;1.00;;
18217;SDS011;9234;49.344;11.120;2023-04-24T08:11:32;2.70;;;1.30;;
18217;SDS011;9234;49.344;11.120;2023-04-24T08:14:00;2.80;;;1.40;;
18217;SDS011;9234;49.344;11.120;2023-04-24T08:16:28;1.83;;;1.05;;
18217;SDS011;9234;49.344;11.120;2023-04-24T08:18:57;2.35;;;1.15;;
18217;SDS011;9234;49.344;11.120;2023-04-24T08:21:25;1.27;;;1.10;;
18217;SDS011;9234;49.344;11.120;2023-04-24T08:23:54;3.78;;;1.20;;
18217;SDS011;9234;49.344;11.120;2023-04-24T08:26:22;1.83;;;1.10;;
18217;SDS011;9234;49.344;11.120;2023-04-24T08:28:52;1.42;;;1.23;;
18217;SDS011;9234;49.344;11.120;2023-04-24T08:31:20;2.00;;;1.40;;
18217;SDS011;9234;49.344;11.120;2023-04-24T08:33:53;1.70;;;1.55;;
18217;SDS011;9234;49.344;11.120;2023-04-24T08:36:21;1.75;;;1.50;;
18217;SDS011;9234;49.344;11.120;2023-04-24T08:39:05;1.88;;;1.40;;
18217;SDS011;9234;49.344;11.120;2023-04-24T08:41:33;2.42;;;1.40;;
18217;SDS011;9234;49.344;11.120;2023-04-24T08:44:05;3.03;;;1.55;;
18217;SDS011;9234;49.344;11.120;2023-04-24T08:46:36;1.63;;;1.52;;
18217;SDS011;9234;49.344;11.120;2023-04-24T08:49:06;2.80;;;1.70;;
18217;SDS011;9234;49.344;11.120;2023-04-24T08:51:34;3.97;;;1.65;;
18217;SDS011;9234;49.344;11.120;2023-04-24T08:54:05;3.63;;;2.00;;
18217;SDS011;9234;49.344;11.120;2023-04-24T08:56:34;2.53;;;1.67;;
18217;SDS011;9234;49.344;11.120;2023-04-24T08:59:07;2.15;;;1.58;;
18217;SDS011;9234;49.344;11.120;2023-04-24T09:01:37;1.95;;;1.60;;
18217;SDS011;9234;49.344;11.120;2023-04-24T09:04:07;1.40;;;1.30;;
18217;SDS011;9234;49.344;11.120;2023-04-24T09:06:39;2.85;;;1.67;;
18217;SDS011;9234;49.344;11.120;2023-04-24T09:09:07;2.03;;;1.40;;
18217;SDS011;9234;49.344;11.120;2023-04-24T09:11:38;2.30;;;1.75;;
18217;SDS011;9234;49.344;11.120;2023-04-24T09:14:08;1.58;;;1.48;;
18217;SDS011;9234;49.344;11.120;2023-04-24T09:16:38;1.30;;;1.15;;
18217;SDS011;9234;49.344;11.120;2023-04-24T09:19:06;2.22;;;1.50;;
18217;SDS011;9234;49.344;11.120;2023-04-24T09:21:34;3.72;;;1.98;;
18217;SDS011;9234;49.344;11.120;2023-04-24T09:24:05;1.60;;;1.50;;
18217;SDS011;9234;49.344;11.120;2023-04-24T09:26:44;2.30;;;1.40;;
18217;SDS011;9234;49.344;11.120;2023-04-24T09:29:15;1.80;;;1.35;;
18217;SDS011;9234;49.344;11.120;2023-04-24T09:31:44;1.50;;;1.40;;
18217;SDS011;9234;49.344;11.120;2023-04-24T09:34:13;2.58;;;1.30;;
18217;SDS011;9234;49.344;11.120;2023-04-24T09:36:42;3.55;;;1.40;;
18217;SDS011;9234;49.344;11.120;2023-04-24T09:39:11;2.75;;;1.20;;
18217;SDS011;9234;49.344;11.120;2023-04-24T09:41:46;1.15;;;1.05;;
18217;SDS011;9234;49.344;11.120;2023-04-24T09:44:18;1.88;;;0.80;;
18217;SDS011;9234;49.344;11.120;2023-04-24T09:46:49;1.45;;;1.27;;
18217;SDS011;9234;49.344;11.120;2023-04-24T09:49:21;2.83;;;1.50;;
18217;SDS011;9234;49.344;11.120;2023-04-24T09:51:52;2.03;;;1.38;;
18217;SDS011;9234;49.344;11.120;2023-04-24T09:54:30;3.20;;;1.17;;
18217;SDS011;9234;49.344;11.120;2023-04-24T09:56:58;1.60;;;1.15;;
18217;SDS011;9234;49.344;11.120;2023-04-24T09:59:28;2.65;;;1.48;;
18217;SDS011;9234;49.344;11.120;2023-04-24T10:01:57;1.48;;;0.95;;
18217;SDS011;9234;49.344;11.120;2023-04-24T10:04:28;1.88;;;1.17;;
18217;SDS011;9234;49.344;11.120;2023-04-24T10:06:56;1.10;;;1.00;;
18217;SDS011;9234;49.344;11.120;2023-04-24T10:09:26;0.95;;;0.95;;
18217;SDS011;9234;49.344;11.120;2023-04-24T10:11:54;1.58;;;1.02;;
18217;SDS011;9234;49.344;11.120;2023-04-24T10:14:23;1.40;;;1.10;;
18217;SDS011;9234;49.344;11.120;2023-04-24T10:16:54;1.10;;;1.00;;
18217;SDS011;9234;49.344;11.120;2023-04-24T10:19:25;1.48;;;1.08;;
18217;SDS011;9234;49.344;11.120;2023-04-24T10:21:54;1.67;;;1.33;;
18217;SDS011;9234;49.344;11.120;2023-04-24T10:24:24;1.42;;;0.93;;
18217;SDS011;9234;49.344;11.120;2023-04-24T10:26:53;1.17;;;1.10;;
18217;SDS011;9234;49.344;11.120;2023-04-24T10:29:23;3.05;;;1.08;;
18217;SDS011;9234;49.344;11.120;2023-04-24T10:31:53;2.65;;;0.93;;
18217;SDS011;9234;49.344;11.120;2023-04-24T10:34:22;1.05;;;0.75;;
18217;SDS011;9234;49.344;11.120;2023-04-24T10:36:51;1.05;;;0.95;;
18217;SDS011;9234;49.344;11.120;2023-04-24T10:39:23;1.15;;;1.00;;
18217;SDS011;9234;49.344;11.120;2023-04-24T10:41:54;1.48;;;0.70;;
18217;SDS011;9234;49.344;11.120;2023-04-24T10:44:24;4.55;;;1.13;;
18217;SDS011;9234;49.344;11.120;2023-04-24T10:46:54;3.35;;;1.05;;
18217;SDS011;9234;49.344;11.120;2023-04-24T10:49:27;1.10;;;0.93;;
18217;SDS011;9234;49.344;11.120;2023-04-24T10:52:00;1.80;;;0.65;;
18217;SDS011;9234;49.344;11.120;2023-04-24T10:54:34;1.52;;;0.85;;
18217;SDS011;9234;49.344;11.120;2023-04-24T11:00:19;0.90;;;0.47;;
18217;SDS011;9234;49.344;11.120;2023-04-24T11:02:50;1.63;;;0.60;;
18217;SDS011;9234;49.344;11.120;2023-04-24T11:05:21;1.13;;;0.52;;
18217;SDS011;9234;49.344;11.120;2023-04-24T11:10:40;0.98;;;0.85;;
18217;SDS011;9234;49.344;11.120;2023-04-24T11:13:14;0.85;;;0.70;;
18217;SDS011;9234;49.344;11.120;2023-04-24T11:15:43;0.93;;;0.75;;
18217;SDS011;9234;49.344;11.120;2023-04-24T11:18:14;3.63;;;0.98;;
18217;SDS011;9234;49.344;11.120;2023-04-24T11:20:43;1.27;;;0.70;;
18217;SDS011;9234;49.344;11.120;2023-04-24T11:23:12;0.98;;;0.60;;
18217;SDS011;9234;49.344;11.120;2023-04-24T11:25:41;0.82;;;0.63;;
18217;SDS011;9234;49.344;11.120;2023-04-24T11:28:09;0.80;;;0.60;;
18217;SDS011;9234;49.344;11.120;2023-04-24T11:30:43;1.67;;;0.88;;
18217;SDS011;9234;49.344;11.120;2023-04-24T11:33:11;1.48;;;0.60;;
18217;SDS011;9234;49.344;11.120;2023-04-24T11:35:49;1.98;;;0.75;;
18217;SDS011;9234;49.344;11.120;2023-04-24T11:38:19;1.90;;;0.50;;
18217;SDS011;9234;49.344;11.120;2023-04-24T11:40:51;1.33;;;0.50;;
18217;SDS011;9234;49.344;11.120;2023-04-24T11:43:19;0.93;;;0.80;;
18217;SDS011;9234;49.344;11.120;2023-04-24T11:45:48;1.70;;;0.77;;
18217;SDS011;9234;49.344;11.120;2023-04-24T11:48:18;1.40;;;0.43;;
18217;SDS011;9234;49.344;11.120;2023-04-24T11:50:49;0.63;;;0.60;;
18217;SDS011;9234;49.344;11.120;2023-04-24T11:53:18;2.60;;;0.60;;
18217;SDS011;9234;49.344;11.120;2023-04-24T11:55:48;1.10;;;0.90;;
18217;SDS011;9234;49.344;11.120;2023-04-24T11:58:16;0.75;;;0.75;;
18217;SDS011;9234;49.344;11.120;2023-04-24T12:00:55;1.70;;;0.98;;
18217;SDS011;9234;49.344;11.120;2023-04-24T12:03:27;1.77;;;0.88;;
18217;SDS011;9234;49.344;11.120;2023-04-24T12:06:04;4.75;;;1.55;;
18217;SDS011;9234;49.344;11.120;2023-04-24T12:08:34;1.70;;;1.30;;
18217;SDS011;9234;49.344;11.120;2023-04-24T12:11:04;1.83;;;1.45;;
18217;SDS011;9234;49.344;11.120;2023-04-24T12:13:34;2.20;;;0.85;;
18217;SDS011;9234;49.344;11.120;2023-04-24T12:16:03;2.42;;;1.00;;
18217;SDS011;9234;49.344;11.120;2023-04-24T12:18:33;2.10;;;0.90;;
18217;SDS011;9234;49.344;11.120;2023-04-24T12:21:14;1.10;;;1.00;;
18217;SDS011;9234;49.344;11.120;2023-04-24T12:23:48;0.88;;;0.80;;
18217;SDS011;9234;49.344;11.120;2023-04-24T12:26:17;1.15;;;0.98;;
18217;SDS011;9234;49.344;11.120;2023-04-24T12:28:48;0.88;;;0.77;;
18217;SDS011;9234;49.344;11.120;2023-04-24T12:31:17;1.75;;;0.82;;
18217;SDS011;9234;49.344;11.120;2023-04-24T12:33:49;3.00;;;1.25;;
18217;SDS011;9234;49.344;11.120;2023-04-24T12:36:17;1.20;;;1.00;;
18217;SDS011;9234;49.344;11.120;2023-04-24T12:38:52;1.17;;;1.00;;
18217;SDS011;9234;49.344;11.120;2023-04-24T12:41:20;1.23;;;1.05;;
18217;SDS011;9234;49.344;11.120;2023-04-24T12:43:52;1.15;;;0.80;;
18217;SDS011;9234;49.344;11.120;2023-04-24T12:46:21;1.70;;;0.80;;
18217;SDS011;9234;49.344;11.120;2023-04-24T12:48:51;3.65;;;1.20;;
18217;SDS011;9234;49.344;11.120;2023-04-24T12:51:19;2.33;;;1.00;;
18217;SDS011;9234;49.344;11.120;2023-04-24T12:53:48;1.02;;;0.73;;
18217;SDS011;9234;49.344;11.120;2023-04-24T12:56:16;1.08;;;0.68;;
18217;SDS011;9234;49.344;11.120;2023-04-24T12:58:44;3.25;;;1.13;;
18217;SDS011;9234;49.344;11.120;2023-04-24T13:01:12;0.80;;;0.80;;
18217;SDS011;9234;49.344;11.120;2023-04-24T13:03:41;0.82;;;0.80;;
18217;SDS011;9234;49.344;11.120;2023-04-24T13:06:11;1.45;;;1.30;;
18217;SDS011;9234;49.344;11.120;2023-04-24T13:08:39;1.48;;;0.70;;
18217;SDS011;9234;49.344;11.120;2023-04-24T13:11:08;1.25;;;0.68;;
18217;SDS011;9234;49.344;11.120;2023-04-24T13:13:36;2.35;;;1.10;;
18217;SDS011;9234;49.344;11.120;2023-04-24T13:16:05;1.15;;;1.05;;
18217;SDS011;9234;49.344;11.120;2023-04-24T13:18:33;2.35;;;1.20;;
18217;SDS011;9234;49.344;11.120;2023-04-24T13:21:02;1.38;;;1.27;;
18217;SDS011;9234;49.344;11.120;2023-04-24T13:23:32;1.63;;;1.00;;
18217;SDS011;9234;49.344;11.120;2023-04-24T13:26:00;2.67;;;1.38;;
18217;SDS011;9234;49.344;11.120;2023-04-24T13:28:29;1.00;;;1.00;;
18217;SDS011;9234;49.344;11.120;2023-04-24T13:30:57;5.00;;;1.50;;
18217;SDS011;9234;49.344;11.120;2023-04-24T13:33:26;1.92;;;1.50;;
18217;SDS011;9234;49.344;11.120;2023-04-24T13:35:54;2.13;;;1.27;;
18217;SDS011;9234;49.344;11.120;2023-04-24T13:38:22;3.17;;;2.97;;
18217;SDS011;9234;49.344;11.120;2023-04-24T13:40:52;1.65;;;1.42;;
18217;SDS011;9234;49.344;11.120;2023-04-24T13:43:21;3.08;;;1.75;;
18217;SDS011;9234;49.344;11.120;2023-04-24T13:45:49;3.40;;;3.10;;
18217;SDS011;9234;49.344;11.120;2023-04-24T13:48:17;3.50;;;2.13;;
18217;SDS011;9234;49.344;11.120;2023-04-24T13:50:46;3.45;;;1.65;;
18217;SDS011;9234;49.344;11.120;2023-04-24T13:53:15;1.60;;;1.50;;
18217;SDS011;9234;49.344;11.120;2023-04-24T13:55:44;2.20;;;2.00;;
18217;SDS011;9234;49.344;11.120;2023-04-24T13:58:13;2.63;;;2.42;;
18217;SDS011;9234;49.344;11.120;2023-04-24T14:00:42;4.80;;;2.03;;
18217;SDS011;9234;49.344;11.120;2023-04-24T14:03:11;2.50;;;2.17;;
18217;SDS011;9234;49.344;11.120;2023-04-24T14:05:40;2.35;;;2.10;;
18217;SDS011;9234;49.344;11.120;2023-04-24T14:08:08;2.85;;;2.20;;
18217;SDS011;9234;49.344;11.120;2023-04-24T14:10:36;2.47;;;2.03;;
18217;SDS011;9234;49.344;11.120;2023-04-24T14:13:05;3.15;;;2.45;;
18217;SDS011;9234;49.344;11.120;2023-04-24T14:15:35;4.50;;;2.35;;
18217;SDS011;9234;49.344;11.120;2023-04-24T14:18:03;4.47;;;3.30;;
18217;SDS011;9234;49.344;11.120;2023-04-24T14:20:32;2.25;;;1.80;;
18217;SDS011;9234;49.344;11.120;2023-04-24T14:23:00;2.80;;;1.73;;
18217;SDS011;9234;49.344;11.120;2023-04-24T14:25:29;2.85;;;1.63;;
18217;SDS011;9234;49.344;11.120;2023-04-24T14:27:57;4.72;;;2.45;;
18217;SDS011;9234;49.344;11.120;2023-04-24T14:30:25;2.97;;;2.10;;
18217;SDS011;9234;49.344;11.120;2023-04-24T14:32:55;4.35;;;3.20;;
18217;SDS011;9234;49.344;11.120;2023-04-24T14:35:23;1.77;;;1.67;;
18217;SDS011;9234;49.344;11.120;2023-04-24T14:37:53;4.20;;;1.77;;
18217;SDS011;9234;49.344;11.120;2023-04-24T14:40:22;1.67;;;1.58;;
18217;SDS011;9234;49.344;11.120;2023-04-24T14:43:10;1.85;;;1.75;;
18217;SDS011;9234;49.344;11.120;2023-04-24T14:45:38;1.92;;;1.60;;
18217;SDS011;9234;49.344;11.120;2023-04-24T14:48:08;2.97;;;1.63;;
18217;SDS011;9234;49.344;11.120;2023-04-24T14:50:37;3.35;;;2.20;;
18217;SDS011;9234;49.344;11.120;2023-04-24T14:53:07;3.17;;;2.03;;
18217;SDS011;9234;49.344;11.120;2023-04-24T14:55:35;1.17;;;1.00;;
18217;SDS011;9234;49.344;11.120;2023-04-24T14:58:04;1.85;;;1.20;;
18217;SDS011;9234;49.344;11.120;2023-04-24T15:00:32;3.20;;;1.25;;
18217;SDS011;9234;49.344;11.120;2023-04-24T15:03:00;1.50;;;1.40;;
18217;SDS011;9234;49.344;11.120;2023-04-24T15:05:30;1.85;;;1.33;;
18217;SDS011;9234;49.344;11.120;2023-04-24T15:07:59;1.45;;;1.30;;
18217;SDS011;9234;49.344;11.120;2023-04-24T15:10:27;2.67;;;1.52;;